createdAt,value
2018-03-03T00:02:18.103Z,99802.52
2018-03-03T00:04:47.208Z,99803.13
2018-03-03T00:07:16.439Z,99790.29
2018-03-03T00:09:45.950Z,99791.51
2018-03-03T00:12:15.178Z,99782.53
2018-03-03T00:14:44.589Z,99777.92
2018-03-03T00:17:14.252Z,99770.50
2018-03-03T00:19:43.417Z,99766.97
2018-03-03T00:22:23.945Z,99760.45
2018-03-03T00:24:53.140Z,99754.98
2018-03-03T00:27:22.423Z,99753.78
2018-03-03T00:29:51.929Z,99744.83
2018-03-03T00:32:21.114Z,99734.66
2018-03-03T00:34:50.806Z,99730.59
2018-03-03T00:37:20.334Z,99734.34
2018-03-03T00:39:49.465Z,99714.20
2018-03-03T00:42:18.564Z,99709.41
2018-03-03T00:44:47.995Z,99704.12
2018-03-03T00:47:17.389Z,99698.88
2018-03-03T00:49:46.643Z,99710.89
2018-03-03T00:52:16.073Z,99693.03
2018-03-03T00:54:45.248Z,99683.95
2018-03-03T00:57:14.637Z,99678.02
2018-03-03T00:59:44.006Z,99670.64
2018-03-03T01:02:13.237Z,99666.20
2018-03-03T01:04:42.641Z,99669.64
2018-03-03T01:07:12.185Z,99670.90
2018-03-03T01:09:41.621Z,99662.03
2018-03-03T01:12:11.208Z,99650.48
2018-03-03T01:14:40.711Z,99648.25
2018-03-03T01:17:10.019Z,99659.75
2018-03-03T01:19:39.217Z,99653.37
2018-03-03T01:22:08.448Z,99655.83
2018-03-03T01:24:37.767Z,99652.70
2018-03-03T01:27:07.737Z,99638.26
2018-03-03T01:29:36.921Z,99637.93
2018-03-03T01:32:06.455Z,99635.34
2018-03-03T01:34:35.717Z,99629.88
2018-03-03T01:37:05.225Z,99622.06
2018-03-03T01:39:34.277Z,99617.00
2018-03-03T01:42:03.476Z,99611.88
2018-03-03T01:44:33.041Z,99603.16
2018-03-03T01:47:02.141Z,99604.45
2018-03-03T01:49:31.341Z,99608.58
2018-03-03T01:52:00.737Z,99614.77
2018-03-03T01:54:30.195Z,99616.20
2018-03-03T01:56:59.561Z,99621.91
2018-03-03T01:59:29.157Z,99632.53
2018-03-03T02:01:58.245Z,99644.53
2018-03-03T02:04:27.339Z,99638.36
2018-03-03T02:06:56.789Z,99633.78
2018-03-03T02:09:25.999Z,99624.70
2018-03-03T02:11:55.229Z,99616.64
2018-03-03T02:14:24.229Z,99609.70
2018-03-03T02:16:53.355Z,99620.16
2018-03-03T02:19:22.601Z,99628.67
2018-03-03T02:21:51.737Z,99628.58
2018-03-03T02:24:21.076Z,99615.75
2018-03-03T02:26:50.253Z,99610.08
2018-03-03T02:29:19.486Z,99627.84
2018-03-03T02:31:48.830Z,99629.68
2018-03-03T02:34:18.181Z,99627.91
2018-03-03T02:36:47.454Z,99640.34
2018-03-03T02:39:16.931Z,99642.44
2018-03-03T02:41:46.177Z,99631.89
2018-03-03T02:44:15.522Z,99630.95
2018-03-03T02:46:44.784Z,99621.22
2018-03-03T02:49:13.888Z,99623.83
2018-03-03T02:51:43.381Z,99625.25
2018-03-03T02:54:12.802Z,99612.11
2018-03-03T02:56:41.962Z,99611.25
2018-03-03T02:59:11.382Z,99605.95
2018-03-03T03:01:40.686Z,99604.49
2018-03-03T03:04:09.885Z,99609.44
2018-03-03T03:06:38.997Z,99610.85
2018-03-03T03:09:08.117Z,99612.69
2018-03-03T03:11:37.205Z,99613.06
2018-03-03T03:14:06.477Z,99613.41
2018-03-03T03:16:35.776Z,99607.51
2018-03-03T03:19:05.030Z,99603.66
2018-03-03T03:21:34.529Z,99609.11
2018-03-03T03:24:03.782Z,99612.06
2018-03-03T03:26:33.079Z,99615.41
2018-03-03T03:29:02.619Z,99595.46
2018-03-03T03:31:31.961Z,99582.45
2018-03-03T03:34:00.945Z,99571.98
2018-03-03T03:36:30.377Z,99573.66
2018-03-03T03:38:59.741Z,99588.70
2018-03-03T03:41:28.946Z,99588.26
2018-03-03T03:43:58.436Z,99591.47
2018-03-03T03:46:27.886Z,99595.14
2018-03-03T03:48:57.117Z,99605.13
2018-03-03T03:51:26.548Z,99610.95
2018-03-03T03:53:55.892Z,99604.71
2018-03-03T03:56:24.993Z,99602.81
2018-03-03T03:58:54.695Z,99600.38
2018-03-03T04:01:24.044Z,99598.88
2018-03-03T04:03:53.025Z,99611.63
2018-03-03T04:06:22.396Z,99611.98
2018-03-03T04:08:51.577Z,99608.11
2018-03-03T04:11:21.159Z,99602.72
2018-03-03T04:13:50.461Z,99594.09
2018-03-03T04:16:19.949Z,99588.09
2018-03-03T04:18:49.021Z,99590.28
2018-03-03T04:21:18.314Z,99603.92
2018-03-03T04:23:47.376Z,99588.73
2018-03-03T04:26:16.762Z,99582.29
2018-03-03T04:28:46.077Z,99586.72
2018-03-03T04:31:15.571Z,99589.89
2018-03-03T04:33:44.773Z,99591.98
2018-03-03T04:36:14.401Z,99578.97
2018-03-03T04:38:43.753Z,99581.59
2018-03-03T04:41:13.277Z,99574.97
2018-03-03T04:43:42.541Z,99567.96
2018-03-03T04:46:11.531Z,99577.27
2018-03-03T04:48:40.787Z,99577.56
2018-03-03T04:51:09.805Z,99573.60
2018-03-03T04:53:39.150Z,99585.50
2018-03-03T04:56:08.285Z,99596.86
2018-03-03T04:58:46.186Z,99597.80
2018-03-03T05:01:15.921Z,99595.97
2018-03-03T05:07:00.873Z,99604.53
2018-03-03T05:09:29.855Z,99603.61
2018-03-03T05:11:59.001Z,99619.63
2018-03-03T05:14:45.188Z,99609.50
2018-03-03T05:20:24.847Z,99600.33
2018-03-03T05:26:03.631Z,99612.05
2018-03-03T05:31:54.547Z,99613.17
2018-03-03T05:34:42.955Z,99618.27
2018-03-03T05:40:34.815Z,99617.89
2018-03-03T05:43:09.857Z,99626.75
2018-03-03T05:45:44.540Z,99640.50
2018-03-03T05:48:19.330Z,99658.56
2018-03-03T05:54:08.685Z,99653.98
2018-03-03T05:56:41.470Z,99665.73
2018-03-03T06:02:20.897Z,99709.22
2018-03-03T06:04:50.777Z,99714.66
2018-03-03T06:07:24.555Z,99723.39
2018-03-03T06:09:54.360Z,99754.11
2018-03-03T06:12:23.781Z,99772.78
2018-03-03T06:14:53.224Z,99787.09
2018-03-03T06:17:22.598Z,99800.08
2018-03-03T06:19:52.346Z,99788.16
2018-03-03T06:22:21.731Z,99788.20
2018-03-03T06:24:51.217Z,99787.20
2018-03-03T06:27:20.514Z,99800.31
2018-03-03T06:29:49.819Z,99817.55
2018-03-03T06:32:19.235Z,99814.37
2018-03-03T06:34:48.629Z,99816.36
2018-03-03T06:37:18.139Z,99813.18
2018-03-03T06:39:47.553Z,99774.81
2018-03-03T06:42:16.719Z,99755.04
2018-03-03T06:44:46.079Z,99726.11
2018-03-03T06:47:15.633Z,99708.90
2018-03-03T06:49:44.693Z,99680.52
2018-03-03T06:52:13.920Z,99665.19
2018-03-03T06:54:43.325Z,99643.87
2018-03-03T06:57:12.316Z,99626.38
2018-03-03T06:59:41.618Z,99611.63
2018-03-03T07:02:11.123Z,99621.94
2018-03-03T07:04:40.421Z,99628.82
2018-03-03T07:07:09.734Z,99629.34
2018-03-03T07:09:38.863Z,99649.41
2018-03-03T07:12:08.182Z,99664.76
2018-03-03T07:17:39.187Z,99734.80
2018-03-03T07:20:08.401Z,99740.98
2018-03-03T07:22:37.603Z,99737.34
2018-03-03T07:25:07.197Z,99741.59
2018-03-03T07:27:36.535Z,99724.61
2018-03-03T07:30:05.587Z,99725.17
2018-03-03T07:32:34.707Z,99734.16
2018-03-03T07:35:03.593Z,99745.08
2018-03-03T07:37:33.016Z,99738.31
2018-03-03T07:40:02.403Z,99738.05
2018-03-03T07:42:31.773Z,99726.50
2018-03-03T07:45:01.081Z,99715.33
2018-03-03T07:47:30.444Z,99712.19
2018-03-03T07:49:59.803Z,99723.23
2018-03-03T07:52:29.195Z,99722.44
2018-03-03T07:54:58.543Z,99711.30
2018-03-03T07:57:27.809Z,99704.65
2018-03-03T07:59:57.007Z,99685.52
2018-03-03T08:02:26.211Z,99677.62
2018-03-03T08:04:55.363Z,99676.53
2018-03-03T08:07:24.844Z,99673.89
2018-03-03T08:09:54.171Z,99680.01
2018-03-03T08:12:23.505Z,99686.21
2018-03-03T08:14:52.798Z,99698.56
2018-03-03T08:17:22.225Z,99710.66
2018-03-03T08:19:51.207Z,99732.08
2018-03-03T08:22:20.238Z,99754.83
2018-03-03T08:24:49.203Z,99756.86
2018-03-03T08:27:18.573Z,99760.97
2018-03-03T08:29:47.761Z,99757.23
2018-03-03T08:32:16.983Z,99763.69
2018-03-03T08:34:46.223Z,99763.47
2018-03-03T08:37:15.462Z,99769.50
2018-03-03T08:39:44.765Z,99772.77
2018-03-03T08:42:14.065Z,99768.24
2018-03-03T08:44:43.470Z,99771.09
2018-03-03T08:47:12.512Z,99772.73
2018-03-03T08:49:41.585Z,99782.23
2018-03-03T08:52:10.862Z,99789.20
2018-03-03T08:54:39.990Z,99781.43
2018-03-03T08:57:08.961Z,99786.55
2018-03-03T08:59:38.163Z,99797.11
2018-03-03T09:02:07.473Z,99800.80
2018-03-03T09:04:36.872Z,99792.88
2018-03-03T09:07:06.309Z,99790.73
2018-03-03T09:09:35.369Z,99795.45
2018-03-03T09:12:05.061Z,99800.84
2018-03-03T09:14:34.425Z,99799.61
2018-03-03T09:17:03.511Z,99799.02
2018-03-03T09:19:32.712Z,99793.21
2018-03-03T09:22:01.857Z,99789.42
2018-03-03T09:24:31.262Z,99812.39
2018-03-03T09:27:00.537Z,99816.23
2018-03-03T09:29:30.032Z,99815.30
2018-03-03T09:31:59.159Z,99816.98
2018-03-03T09:34:28.565Z,99821.66
2018-03-03T09:36:57.805Z,99824.21
2018-03-03T09:39:27.174Z,99827.70
2018-03-03T09:41:56.571Z,99823.59
2018-03-03T09:44:26.102Z,99824.48
2018-03-03T09:46:55.585Z,99816.11
2018-03-03T09:49:24.836Z,99813.53
2018-03-03T09:51:54.058Z,99819.61
2018-03-03T09:54:23.447Z,99824.95
2018-03-03T09:56:52.873Z,99827.12
2018-03-03T09:59:21.941Z,99835.56
2018-03-03T10:01:58.933Z,99836.23
2018-03-03T10:04:20.458Z,99848.55
2018-03-03T10:06:49.398Z,99845.17
2018-03-03T10:09:18.566Z,99849.48
2018-03-03T10:11:48.117Z,99849.80
2018-03-03T10:14:17.085Z,99844.00
2018-03-03T10:16:46.285Z,99834.30
2018-03-03T10:19:15.547Z,99823.96
2018-03-03T10:21:44.965Z,99828.41
2018-03-03T10:24:14.275Z,99813.18
2018-03-03T10:26:43.288Z,99817.67
2018-03-03T10:29:12.645Z,99834.63
2018-03-03T10:31:42.131Z,99827.31
2018-03-03T10:34:11.393Z,99836.89
2018-03-03T10:36:40.352Z,99833.83
2018-03-03T10:39:09.425Z,99840.86
2018-03-03T10:41:38.870Z,99841.02
2018-03-03T10:44:08.102Z,99851.70
2018-03-03T10:46:37.667Z,99853.69
2018-03-03T10:49:06.851Z,99850.70
2018-03-03T10:51:35.945Z,99844.47
2018-03-03T10:54:05.557Z,99850.38
2018-03-03T10:56:34.506Z,99855.38
2018-03-03T10:59:03.903Z,99862.25
2018-03-03T11:01:33.085Z,99859.47
2018-03-03T11:04:02.370Z,99857.06
2018-03-03T11:06:31.649Z,99870.16
2018-03-03T11:09:00.745Z,99873.13
2018-03-03T11:11:30.121Z,99880.05
2018-03-03T11:13:59.290Z,99882.61
2018-03-03T11:16:28.619Z,99874.68
2018-03-03T11:18:57.732Z,99879.45
2018-03-03T11:21:26.975Z,99890.80
2018-03-03T11:23:56.058Z,99889.61
2018-03-03T11:26:25.047Z,99896.72
2018-03-03T11:28:54.114Z,99888.66
2018-03-03T11:31:23.395Z,99882.66
2018-03-03T11:33:52.517Z,99882.83
2018-03-03T11:36:21.704Z,99888.64
2018-03-03T11:38:50.965Z,99876.05
2018-03-03T11:41:20.233Z,99892.16
2018-03-03T11:43:49.538Z,99892.75
2018-03-03T11:46:18.755Z,99889.41
2018-03-03T11:48:47.932Z,99897.53
2018-03-03T11:51:17.010Z,99899.31
2018-03-03T11:53:46.437Z,99898.42
2018-03-03T11:56:15.692Z,99901.83
2018-03-03T11:58:45.191Z,99894.18
2018-03-03T12:01:14.433Z,99890.03
2018-03-03T12:03:43.495Z,99893.40
2018-03-03T12:06:13.086Z,99889.16
2018-03-03T12:08:42.370Z,99894.30
2018-03-03T12:11:11.906Z,99884.97
2018-03-03T12:13:40.874Z,99892.22
2018-03-03T12:16:09.959Z,99893.38
2018-03-03T12:18:39.153Z,99890.14
2018-03-03T12:21:08.445Z,99879.66
2018-03-03T12:23:38.045Z,99877.56
2018-03-03T12:26:07.451Z,99880.83
2018-03-03T12:28:36.788Z,99880.75
2018-03-03T12:31:06.685Z,99889.88
2018-03-03T12:33:35.698Z,99892.88
2018-03-03T12:36:04.633Z,99886.43
2018-03-03T12:38:33.845Z,99878.28
2018-03-03T12:41:03.161Z,99871.37
2018-03-03T12:43:32.369Z,99871.98
2018-03-03T12:46:01.479Z,99872.56
2018-03-03T12:48:30.941Z,99879.06
2018-03-03T12:50:59.891Z,99878.56
2018-03-03T12:53:29.109Z,99874.56
2018-03-03T12:55:58.250Z,99867.98
2018-03-03T12:58:27.652Z,99873.16
2018-03-03T13:00:56.605Z,99873.44
2018-03-03T13:03:25.521Z,99874.32
2018-03-03T13:05:54.641Z,99871.30
2018-03-03T13:08:23.901Z,99867.98
2018-03-03T13:10:53.171Z,99881.15
2018-03-03T13:13:22.483Z,99874.23
2018-03-03T13:15:51.613Z,99871.66
2018-03-03T13:18:21.081Z,99879.57
2018-03-03T13:20:50.739Z,99846.16
2018-03-03T13:23:20.203Z,99868.70
2018-03-03T13:25:49.609Z,99866.66
2018-03-03T13:28:18.795Z,99867.64
2018-03-03T13:30:48.147Z,99856.88
2018-03-03T13:33:17.561Z,99862.39
2018-03-03T13:35:47.493Z,99861.34
2018-03-03T13:38:17.053Z,99844.85
2018-03-03T13:40:46.098Z,99845.16
2018-03-03T13:43:15.729Z,99844.17
2018-03-03T13:45:44.923Z,99849.05
2018-03-03T13:48:14.104Z,99837.09
2018-03-03T13:50:43.073Z,99836.66
2018-03-03T13:53:12.221Z,99826.43
2018-03-03T13:55:41.606Z,99816.88
2018-03-03T13:58:10.820Z,99842.16
2018-03-03T14:00:40.157Z,99813.02
2018-03-03T14:03:09.544Z,99815.30
2018-03-03T14:05:38.905Z,99832.81
2018-03-03T14:08:08.373Z,99839.14
2018-03-03T14:10:37.827Z,99866.64
2018-03-03T14:13:07.477Z,99844.47
2018-03-03T14:15:36.534Z,99820.19
2018-03-03T14:18:05.879Z,99825.39
2018-03-03T14:20:35.396Z,99819.20
2018-03-03T14:23:04.885Z,99827.86
2018-03-03T14:25:34.539Z,99827.18
2018-03-03T14:28:03.897Z,99837.75
2018-03-03T14:30:33.202Z,99829.19
2018-03-03T14:33:02.565Z,99822.84
2018-03-03T14:35:31.554Z,99826.91
2018-03-03T14:38:01.101Z,99833.87
2018-03-03T14:40:30.325Z,99858.07
2018-03-03T14:42:59.631Z,99853.50
2018-03-03T14:45:28.845Z,99854.23
2018-03-03T14:47:57.752Z,99854.70
2018-03-03T14:50:27.180Z,99846.05
2018-03-03T14:52:56.270Z,99841.20
2018-03-03T14:55:25.493Z,99849.98
2018-03-03T14:57:54.740Z,99841.62
2018-03-03T15:00:23.668Z,99866.81
2018-03-03T15:02:52.933Z,99857.78
2018-03-03T15:05:22.240Z,99858.89
2018-03-03T15:07:51.217Z,99851.02
2018-03-03T15:10:20.518Z,99852.22
2018-03-03T15:12:49.885Z,99860.83
2018-03-03T15:15:19.086Z,99854.80
2018-03-03T15:17:48.481Z,99852.59
2018-03-03T15:20:17.834Z,99861.75
2018-03-03T15:22:46.909Z,99861.72
2018-03-03T15:25:16.314Z,99869.48
2018-03-03T15:27:46.492Z,99872.44
2018-03-03T15:30:15.619Z,99868.67
2018-03-03T15:32:44.901Z,99870.94
2018-03-03T15:35:13.939Z,99873.72
2018-03-03T15:37:42.950Z,99877.70
2018-03-03T15:40:12.501Z,99883.02
2018-03-03T15:42:41.809Z,99918.38
2018-03-03T15:45:11.031Z,99899.95
2018-03-03T15:47:40.318Z,99893.70
2018-03-03T15:50:09.561Z,99906.11
2018-03-03T15:52:38.640Z,99912.94
2018-03-03T15:55:07.869Z,99913.80
2018-03-03T15:57:37.215Z,99913.78
2018-03-03T16:00:06.547Z,99911.41
2018-03-03T16:02:35.902Z,99915.75
2018-03-03T16:05:04.989Z,99923.33
2018-03-03T16:07:34.113Z,99922.45
2018-03-03T16:10:03.334Z,99927.24
2018-03-03T16:12:32.708Z,99929.81
2018-03-03T16:15:01.941Z,99933.06
2018-03-03T16:17:31.114Z,99940.52
2018-03-03T16:20:00.523Z,99925.84
2018-03-03T16:22:29.499Z,99939.78
2018-03-03T16:24:59.109Z,99938.15
2018-03-03T16:27:28.235Z,99939.34
2018-03-03T16:29:57.448Z,99950.41
2018-03-03T16:32:26.665Z,99948.94
2018-03-03T16:34:55.619Z,99954.51
2018-03-03T16:37:24.812Z,99962.55
2018-03-03T16:39:54.061Z,99973.29
2018-03-03T16:42:23.413Z,99976.14
2018-03-03T16:44:52.503Z,99975.73
2018-03-03T16:47:21.781Z,99982.17
2018-03-03T16:49:51.185Z,99985.14
2018-03-03T16:52:20.494Z,99991.98
2018-03-03T16:54:49.794Z,99988.17
2018-03-03T16:57:19.106Z,99988.64
2018-03-03T16:59:48.317Z,99990.64
2018-03-03T17:02:17.665Z,99989.19
2018-03-03T17:04:46.887Z,99988.72
2018-03-03T17:07:16.784Z,99994.77
2018-03-03T17:09:46.141Z,99990.94
2018-03-03T17:12:15.767Z,99999.91
2018-03-03T17:14:45.934Z,100001.39
2018-03-03T17:17:15.141Z,100005.70
2018-03-03T17:19:44.607Z,100007.56
2018-03-03T17:22:13.708Z,100011.06
2018-03-03T17:24:43.041Z,100011.73
2018-03-03T17:27:12.313Z,100009.83
2018-03-03T17:29:41.698Z,100009.02
2018-03-03T17:32:11.110Z,100009.09
2018-03-03T17:34:40.342Z,99996.69
2018-03-03T17:37:09.530Z,100002.50
2018-03-03T17:39:39.001Z,100002.19
2018-03-03T17:42:08.207Z,100013.80
2018-03-03T17:44:37.400Z,100021.98
2018-03-03T17:47:06.499Z,100038.05
2018-03-03T17:49:35.751Z,100031.96
2018-03-03T17:52:04.887Z,100031.05
2018-03-03T17:54:33.990Z,100034.16
2018-03-03T17:57:03.545Z,100030.58
2018-03-03T17:59:32.671Z,100018.75
2018-03-03T18:02:01.961Z,100028.83
2018-03-03T18:04:31.137Z,100034.27
2018-03-03T18:07:00.194Z,100031.39
2018-03-03T18:09:29.785Z,100025.52
2018-03-03T18:11:59.875Z,100026.94
2018-03-03T18:14:29.229Z,100023.55
2018-03-03T18:16:58.360Z,100032.31
2018-03-03T18:19:36.011Z,100031.98
2018-03-03T18:22:05.964Z,100042.48
2018-03-03T18:24:37.431Z,100035.52
2018-03-03T18:27:08.475Z,100033.75
2018-03-03T18:29:37.698Z,100032.12
2018-03-03T18:32:06.821Z,100034.21
2018-03-03T18:34:36.157Z,100036.82
2018-03-03T18:37:05.503Z,100032.26
2018-03-03T18:39:35.298Z,100033.25
2018-03-03T18:42:04.435Z,100030.87
2018-03-03T18:44:33.532Z,100040.05
2018-03-03T18:47:03.069Z,100048.18
2018-03-03T18:49:32.173Z,100047.60
2018-03-03T18:52:01.207Z,100046.22
2018-03-03T18:54:30.375Z,100059.44
2018-03-03T18:56:59.769Z,100057.36
2018-03-03T18:59:28.738Z,100053.56
2018-03-03T19:01:57.847Z,100046.28
2018-03-03T19:04:27.180Z,100043.81
2018-03-03T19:06:56.425Z,100048.02
2018-03-03T19:09:25.704Z,100043.70
2018-03-03T19:11:55.052Z,100055.14
2018-03-03T19:14:24.298Z,100040.48
2018-03-03T19:16:53.449Z,100041.58
2018-03-03T19:19:22.543Z,100039.61
2018-03-03T19:21:51.674Z,100047.91
2018-03-03T19:24:20.917Z,100057.42
2018-03-03T19:26:50.151Z,100052.27
2018-03-03T19:29:19.438Z,100047.97
2018-03-03T19:31:48.767Z,100043.94
2018-03-03T19:34:17.841Z,100052.62
2018-03-03T19:36:46.949Z,100058.27
2018-03-03T19:39:16.011Z,100061.30
2018-03-03T19:41:45.244Z,100050.64
2018-03-03T19:44:14.558Z,100043.63
2018-03-03T19:46:43.671Z,100034.11
2018-03-03T19:49:12.641Z,100045.20
2018-03-03T19:51:41.870Z,100046.52
2018-03-03T19:54:11.231Z,100048.09
2018-03-03T19:56:40.726Z,100052.76
2018-03-03T19:59:10.139Z,100054.36
2018-03-03T20:01:39.475Z,100053.87
2018-03-03T20:04:08.553Z,100060.66
2018-03-03T20:06:37.650Z,100062.59
2018-03-03T20:09:06.679Z,100055.20
2018-03-03T20:11:35.909Z,100061.88
2018-03-03T20:14:04.971Z,100067.59
2018-03-03T20:16:34.038Z,100071.92
2018-03-03T20:19:03.006Z,100069.60
2018-03-03T20:21:32.110Z,100071.37
2018-03-03T20:24:01.471Z,100070.45
2018-03-03T20:26:30.694Z,100067.73
2018-03-03T20:28:59.693Z,100080.58
2018-03-03T20:31:28.866Z,100095.66
2018-03-03T20:33:58.295Z,100092.41
2018-03-03T20:36:27.249Z,100089.52
2018-03-03T20:38:56.581Z,100081.55
2018-03-03T20:41:25.930Z,100081.02
2018-03-03T20:43:55.117Z,100078.70
2018-03-03T20:46:24.357Z,100081.77
2018-03-03T20:48:53.655Z,100088.34
2018-03-03T20:51:22.942Z,100082.61
2018-03-03T20:53:52.202Z,100082.98
2018-03-03T20:56:21.453Z,100071.58
2018-03-03T20:58:50.587Z,100066.78
2018-03-03T21:01:19.713Z,100062.58
2018-03-03T21:03:48.945Z,100063.53
2018-03-03T21:06:17.951Z,100070.02
2018-03-03T21:08:46.997Z,100065.34
2018-03-03T21:11:20.090Z,100063.81
2018-03-03T21:13:49.403Z,100061.77
2018-03-03T21:16:18.365Z,100066.59
2018-03-03T21:18:47.685Z,100059.55
2018-03-03T21:21:16.815Z,100058.96
2018-03-03T21:23:45.913Z,100050.91
2018-03-03T21:26:15.027Z,100063.41
2018-03-03T21:28:44.013Z,100055.48
2018-03-03T21:31:13.455Z,100062.42
2018-03-03T21:33:42.755Z,100047.09
2018-03-03T21:36:12.286Z,100044.71
2018-03-03T21:38:41.917Z,100047.52
2018-03-03T21:41:11.253Z,100040.81
2018-03-03T21:43:40.634Z,100043.11
2018-03-03T21:46:09.745Z,100045.70
2018-03-03T21:48:39.015Z,100050.67
2018-03-03T21:51:08.269Z,100056.61
2018-03-03T21:53:37.545Z,100053.59
2018-03-03T21:56:06.648Z,100049.52
2018-03-03T21:58:35.676Z,100028.75
2018-03-03T22:01:04.877Z,100026.67
2018-03-03T22:03:33.946Z,100028.40
2018-03-03T22:06:02.967Z,100033.28
2018-03-03T22:08:32.121Z,100034.68
2018-03-03T22:11:01.185Z,100033.73
2018-03-03T22:13:30.838Z,100042.41
2018-03-03T22:16:00.233Z,100046.05
2018-03-03T22:18:29.529Z,100043.09
2018-03-03T22:20:59.240Z,100028.06
2018-03-03T22:23:28.719Z,100035.81
2018-03-03T22:25:57.913Z,100034.35
2018-03-03T22:28:27.345Z,100034.20
2018-03-03T22:30:56.635Z,100021.28
2018-03-03T22:33:25.848Z,100030.08
2018-03-03T22:35:55.129Z,100030.20
2018-03-03T22:38:24.480Z,100035.03
2018-03-03T22:40:53.655Z,100027.65
2018-03-03T22:43:22.737Z,100028.94
2018-03-03T22:45:51.975Z,100010.76
2018-03-03T22:48:21.342Z,100009.12
2018-03-03T22:50:50.439Z,100018.25
2018-03-03T22:53:19.845Z,100020.19
2018-03-03T22:55:49.050Z,100021.37
2018-03-03T22:58:17.997Z,100034.89
2018-03-03T23:00:47.785Z,100041.92
2018-03-03T23:03:17.110Z,100044.03
2018-03-03T23:05:46.198Z,100051.70
2018-03-03T23:08:15.276Z,100051.67
2018-03-03T23:10:44.547Z,100048.70
2018-03-03T23:13:13.739Z,100057.67
2018-03-03T23:15:43.036Z,100055.05
2018-03-03T23:18:12.237Z,100054.59
2018-03-03T23:20:41.797Z,100060.69
2018-03-03T23:23:11.249Z,100059.61
2018-03-03T23:25:40.454Z,100059.09
2018-03-03T23:28:09.649Z,100057.91
2018-03-03T23:30:38.837Z,100057.81
2018-03-03T23:33:08.151Z,100062.64
2018-03-03T23:35:37.233Z,100052.80
2018-03-03T23:38:06.744Z,100049.23
2018-03-03T23:40:36.055Z,100057.27
2018-03-03T23:43:05.197Z,100055.35
2018-03-03T23:45:34.452Z,100057.33
2018-03-03T23:48:03.741Z,100060.45
2018-03-03T23:50:33.041Z,100063.95
2018-03-03T23:53:02.461Z,100070.41
2018-03-03T23:55:31.641Z,100061.23
2018-03-03T23:58:01.107Z,100057.98
